Time;durP1;ratioP1;P1;durP2;ratioP2;P2;SDS_P1;SDS_P2;PMS_P1;PMS_P2;Temp;Humidity;BMP_temperature;BMP_pressure;BME280_temperature;BME280_humidity;BME280_pressure;Samples;Min_cycle;Max_cycle;Signal;HPM_P1;HPM_P2
2022/07/26 00:01:27;;;;;;;10.52;8.60;;;26.80;99.90;;;;;;5041914;28;20032;-72
2022/07/26 00:03:56;;;;;;;14.45;9.30;;;26.80;99.90;;;;;;5044080;28;20041;-72
2022/07/26 00:06:24;;;;;;;11.68;8.98;;;26.80;99.90;;;;;;5042152;28;20027;-72
2022/07/26 00:08:53;;;;;;;9.90;8.77;;;26.80;99.90;;;;;;5043412;28;20116;-72
2022/07/26 00:11:19;;;;;;;9.82;8.00;;;26.80;99.90;;;;;;5045673;28;20017;-72
2022/07/26 00:13:45;;;;;;;12.00;8.82;;;26.80;99.90;;;;;;5045584;28;20029;-72
2022/07/26 00:16:11;;;;;;;15.05;8.82;;;26.80;99.90;;;;;;5045819;28;20044;-73
2022/07/26 00:18:37;;;;;;;9.40;8.55;;;26.80;99.90;;;;;;5044549;28;20387;-72
2022/07/26 00:21:04;;;;;;;9.50;8.60;;;26.80;99.90;;;;;;5046980;28;20044;-72
2022/07/26 00:23:29;;;;;;;13.23;8.48;;;26.80;99.90;;;;;;5048187;28;20031;-73
2022/07/26 00:25:55;;;;;;;10.38;8.70;;;26.70;99.90;;;;;;5036862;28;20020;-72
2022/07/26 00:28:21;;;;;;;11.25;8.13;;;26.70;99.90;;;;;;5043907;28;20025;-72
2022/07/26 00:30:47;;;;;;;9.55;8.23;;;26.70;99.90;;;;;;5046656;28;20029;-73
2022/07/26 00:33:13;;;;;;;11.98;8.88;;;26.70;99.90;;;;;;5044564;28;20112;-72
2022/07/26 00:35:41;;;;;;;10.75;8.60;;;26.60;99.90;;;;;;5040123;28;20040;-72
2022/07/26 00:38:07;;;;;;;9.25;8.10;;;26.60;99.90;;;;;;5039124;28;20037;-73
2022/07/26 00:40:33;;;;;;;9.70;8.60;;;26.60;99.90;;;;;;5046285;28;20442;-72
2022/07/26 00:42:59;;;;;;;9.30;8.20;;;26.60;99.90;;;;;;5045097;28;20508;-72
2022/07/26 00:45:24;;;;;;;15.63;9.13;;;26.60;99.90;;;;;;5036615;28;20036;-72
2022/07/26 00:47:50;;;;;;;10.25;8.48;;;26.60;99.90;;;;;;5045708;28;20045;-73
2022/07/26 00:50:17;;;;;;;10.23;8.00;;;26.60;99.90;;;;;;5042772;28;20041;-72
2022/07/26 00:52:47;;;;;;;11.98;8.40;;;26.60;99.90;;;;;;5041056;28;20444;-72
2022/07/26 00:55:17;;;;;;;11.07;8.13;;;26.60;99.90;;;;;;5041192;28;20033;-72
2022/07/26 00:57:43;;;;;;;11.18;8.55;;;26.60;99.90;;;;;;5045429;28;20033;-73
2022/07/26 01:00:19;;;;;;;9.38;8.43;;;26.50;99.90;;;;;;5042819;28;20510;-73
2022/07/26 01:02:45;;;;;;;9.02;7.88;;;26.50;99.90;;;;;;5045543;28;20052;-72
2022/07/26 01:05:11;;;;;;;11.35;8.10;;;26.50;99.90;;;;;;5038607;28;20071;-73
2022/07/26 01:07:37;;;;;;;10.13;7.50;;;26.50;99.90;;;;;;5045240;28;20036;-73
2022/07/26 01:10:06;;;;;;;8.90;7.05;;;26.50;99.90;;;;;;5041989;28;20029;-73
2022/07/26 01:12:32;;;;;;;10.00;8.23;;;26.50;99.90;;;;;;5046287;28;20025;-72
2022/07/26 01:14:57;;;;;;;9.32;7.93;;;26.50;99.90;;;;;;5038521;28;20026;-73
2022/07/26 01:17:23;;;;;;;11.73;8.70;;;26.60;99.90;;;;;;5043350;28;20076;-72
2022/07/26 01:19:49;;;;;;;12.98;8.30;;;26.50;99.90;;;;;;5040925;28;20021;-73
2022/07/26 01:22:17;;;;;;;9.13;8.18;;;26.50;99.90;;;;;;5041536;28;20415;-73
2022/07/26 01:24:42;;;;;;;9.93;8.10;;;26.40;99.90;;;;;;5041676;28;20068;-72
2022/07/26 01:27:08;;;;;;;11.18;8.50;;;26.40;99.90;;;;;;5045827;28;20056;-72
2022/07/26 01:29:35;;;;;;;10.50;8.27;;;26.40;99.90;;;;;;5041471;28;20480;-74
2022/07/26 01:32:02;;;;;;;12.23;8.18;;;26.40;99.90;;;;;;5046083;28;20035;-74
2022/07/26 01:34:28;;;;;;;10.88;8.20;;;26.30;99.90;;;;;;5044237;28;20108;-74
2022/07/26 01:36:55;;;;;;;9.25;8.35;;;26.30;99.90;;;;;;5046466;28;20119;-73
2022/07/26 01:39:21;;;;;;;11.80;8.40;;;26.30;99.90;;;;;;5041120;28;20139;-74
2022/07/26 01:41:47;;;;;;;11.18;8.88;;;26.30;99.90;;;;;;5045551;28;20121;-74
2022/07/26 01:44:12;;;;;;;10.85;8.88;;;26.30;99.90;;;;;;5042026;28;20112;-73
2022/07/26 01:46:38;;;;;;;10.75;8.20;;;26.30;99.90;;;;;;5044974;28;20026;-74
2022/07/26 01:49:07;;;;;;;10.13;8.23;;;26.30;99.90;;;;;;5043065;28;20120;-73
2022/07/26 01:51:33;;;;;;;11.32;8.07;;;26.30;99.90;;;;;;5044353;28;20032;-73
2022/07/26 01:54:03;;;;;;;9.52;7.97;;;26.30;99.90;;;;;;5043513;28;20107;-72
2022/07/26 01:56:29;;;;;;;10.45;7.97;;;26.30;99.90;;;;;;5043750;28;20041;-72
2022/07/26 01:58:56;;;;;;;14.57;8.75;;;26.40;99.90;;;;;;5043782;28;20513;-73
2022/07/26 02:01:22;;;;;;;11.57;8.20;;;26.40;99.90;;;;;;5043928;28;20080;-73
2022/07/26 02:03:48;;;;;;;15.05;8.05;;;26.40;99.90;;;;;;5037581;28;20032;-73
2022/07/26 02:06:14;;;;;;;10.02;8.40;;;26.30;99.90;;;;;;5038795;28;20399;-73
2022/07/26 02:08:42;;;;;;;8.75;7.78;;;26.30;99.90;;;;;;5041245;28;20029;-73
2022/07/26 02:11:11;;;;;;;8.45;7.47;;;26.30;99.90;;;;;;5044411;28;20155;-72
2022/07/26 02:13:39;;;;;;;12.25;8.25;;;26.30;99.90;;;;;;5041863;28;20503;-73
2022/07/26 02:16:09;;;;;;;9.15;7.93;;;26.20;99.90;;;;;;5046512;28;20027;-72
2022/07/26 02:18:36;;;;;;;13.55;8.50;;;26.20;99.90;;;;;;5040157;28;20026;-73
2022/07/26 02:21:04;;;;;;;10.75;8.15;;;26.30;99.90;;;;;;5042315;28;20468;-72
2022/07/26 02:23:31;;;;;;;12.02;8.55;;;26.30;99.90;;;;;;5040292;28;20025;-72
2022/07/26 02:25:56;;;;;;;12.02;8.68;;;26.30;99.90;;;;;;5036495;28;20034;-72
2022/07/26 02:28:23;;;;;;;11.07;8.30;;;26.20;99.90;;;;;;5041525;28;20029;-73
2022/07/26 02:30:49;;;;;;;10.05;8.38;;;26.20;99.90;;;;;;5043695;28;20021;-73
2022/07/26 02:33:16;;;;;;;14.23;8.50;;;26.20;99.90;;;;;;5046448;28;20029;-71
2022/07/26 02:35:42;;;;;;;11.00;8.48;;;26.30;99.90;;;;;;5038547;28;20040;-71
2022/07/26 02:38:11;;;;;;;12.30;7.45;;;26.30;99.90;;;;;;5042587;28;20132;-71
2022/07/26 02:40:38;;;;;;;9.73;7.95;;;26.30;99.90;;;;;;5042126;28;20545;-71
2022/07/26 02:43:05;;;;;;;9.35;8.10;;;26.30;99.90;;;;;;5042588;28;20622;-71
2022/07/26 02:45:31;;;;;;;14.85;8.85;;;26.30;99.90;;;;;;5042805;28;20165;-71
2022/07/26 02:47:57;;;;;;;9.25;7.85;;;26.30;99.90;;;;;;5041337;28;20075;-71
2022/07/26 02:50:24;;;;;;;16.05;8.18;;;26.30;99.90;;;;;;5042846;28;20025;-70
2022/07/26 02:52:51;;;;;;;8.52;7.60;;;26.30;99.90;;;;;;5042786;28;20031;-71
2022/07/26 02:55:22;;;;;;;11.45;8.30;;;26.30;99.90;;;;;;5042103;28;20032;-70
2022/07/26 02:57:48;;;;;;;9.95;8.80;;;26.30;99.90;;;;;;5042859;28;20483;-71
2022/07/26 03:00:16;;;;;;;9.52;8.52;;;26.30;99.90;;;;;;5041345;28;20063;-70
2022/07/26 03:02:42;;;;;;;9.38;8.38;;;26.30;99.90;;;;;;5042414;28;20086;-71
2022/07/26 03:05:08;;;;;;;11.27;8.02;;;26.30;99.90;;;;;;5035154;28;20025;-70
2022/07/26 03:07:34;;;;;;;15.00;8.48;;;26.30;99.90;;;;;;5042163;28;20041;-70
2022/07/26 03:09:59;;;;;;;11.13;8.20;;;26.30;99.90;;;;;;5043337;28;20032;-70
2022/07/26 03:12:25;;;;;;;10.18;8.07;;;26.30;99.90;;;;;;5044154;28;20029;-70
2022/07/26 03:14:51;;;;;;;12.38;7.90;;;26.30;99.90;;;;;;5039778;28;20024;-71
2022/07/26 03:17:17;;;;;;;10.77;8.05;;;26.30;99.90;;;;;;5044025;28;20400;-71
2022/07/26 03:19:43;;;;;;;8.73;7.82;;;26.30;99.90;;;;;;5039457;28;20025;-70
2022/07/26 03:22:09;;;;;;;8.48;7.63;;;26.30;99.90;;;;;;5040657;28;20025;-70
2022/07/26 03:24:35;;;;;;;15.88;8.25;;;26.20;99.90;;;;;;5040973;28;20025;-70
2022/07/26 03:27:00;;;;;;;9.23;8.32;;;26.20;99.90;;;;;;5044023;28;20033;-70
2022/07/26 03:29:26;;;;;;;9.32;8.23;;;26.20;99.90;;;;;;5039335;28;20513;-70
2022/07/26 03:31:52;;;;;;;9.02;7.75;;;26.20;99.90;;;;;;5048229;28;20025;-70
2022/07/26 03:34:18;;;;;;;11.55;7.55;;;26.20;99.90;;;;;;5040417;28;20033;-71
2022/07/26 03:36:44;;;;;;;8.60;7.70;;;26.20;99.90;;;;;;5034288;28;20041;-71
2022/07/26 03:39:10;;;;;;;8.95;8.10;;;26.20;99.90;;;;;;5042227;28;20399;-70
2022/07/26 03:41:36;;;;;;;10.43;7.80;;;26.30;99.90;;;;;;5045287;28;20052;-71
2022/07/26 03:44:01;;;;;;;9.75;8.57;;;26.30;99.90;;;;;;5046034;28;20491;-71
2022/07/26 03:46:27;;;;;;;14.98;8.52;;;26.40;99.90;;;;;;5048413;28;20029;-71
2022/07/26 03:48:55;;;;;;;10.77;9.70;;;26.40;99.90;;;;;;5041299;28;20029;-71
2022/07/26 03:51:24;;;;;;;12.38;9.57;;;26.40;99.90;;;;;;5041438;28;20037;-71
2022/07/26 03:53:50;;;;;;;12.77;9.50;;;26.40;99.90;;;;;;5046389;28;20395;-71
2022/07/26 03:56:31;;;;;;;9.95;8.93;;;26.40;99.90;;;;;;5045958;28;20037;-70
2022/07/26 03:59:07;;;;;;;14.88;9.80;;;26.40;99.90;;;;;;5046250;28;20082;-71
2022/07/26 04:01:34;;;;;;;11.07;9.02;;;26.30;99.90;;;;;;5051063;28;20033;-71
2022/07/26 04:04:00;;;;;;;11.93;9.00;;;26.20;99.90;;;;;;5045692;28;20124;-70
2022/07/26 04:06:26;;;;;;;12.82;8.85;;;26.20;99.90;;;;;;5040925;28;20029;-71
2022/07/26 04:08:52;;;;;;;11.93;8.38;;;26.20;99.90;;;;;;5043128;28;20031;-70
2022/07/26 04:11:21;;;;;;;9.35;8.45;;;26.20;99.90;;;;;;5045918;28;20025;-71
2022/07/26 04:13:46;;;;;;;10.10;8.73;;;26.20;99.90;;;;;;5045759;28;20033;-71
2022/07/26 04:16:13;;;;;;;11.57;8.40;;;26.20;99.90;;;;;;5044503;28;20021;-71
2022/07/26 04:18:38;;;;;;;9.23;8.27;;;26.30;99.90;;;;;;5044548;28;20112;-72
2022/07/26 04:21:04;;;;;;;9.27;8.23;;;26.30;99.90;;;;;;5046784;28;20096;-71
2022/07/26 04:23:30;;;;;;;10.65;8.57;;;26.30;99.90;;;;;;5045866;28;20040;-71
2022/07/26 04:25:56;;;;;;;9.23;8.20;;;26.30;99.90;;;;;;5045776;28;20048;-71
2022/07/26 04:28:23;;;;;;;9.90;8.40;;;26.40;99.90;;;;;;5043668;28;20025;-71
2022/07/26 04:30:49;;;;;;;11.80;8.38;;;26.40;99.90;;;;;;5046130;28;20036;-71
2022/07/26 04:33:14;;;;;;;10.88;9.02;;;26.40;99.90;;;;;;5049580;28;20515;-71
2022/07/26 04:35:40;;;;;;;12.15;8.73;;;26.40;99.90;;;;;;5039959;28;20056;-71
2022/07/26 04:38:06;;;;;;;11.13;9.23;;;26.40;99.90;;;;;;5045191;28;20030;-71
2022/07/26 04:40:34;;;;;;;10.52;8.20;;;26.40;99.90;;;;;;5045173;28;20036;-71
2022/07/26 04:43:00;;;;;;;9.13;7.88;;;26.40;99.90;;;;;;5042536;28;20435;-70
2022/07/26 04:45:26;;;;;;;10.02;8.30;;;26.40;99.90;;;;;;5040382;28;20026;-70
2022/07/26 04:47:52;;;;;;;12.45;9.50;;;26.50;99.90;;;;;;5040330;28;20538;-70
2022/07/26 04:50:19;;;;;;;13.70;8.63;;;26.50;99.90;;;;;;5047244;28;20029;-70
2022/07/26 04:52:45;;;;;;;15.43;9.27;;;26.60;99.90;;;;;;5045492;28;20271;-70
2022/07/26 04:55:11;;;;;;;17.10;8.65;;;26.70;99.90;;;;;;5043404;28;20060;-70
2022/07/26 04:57:37;;;;;;;10.77;7.88;;;26.80;99.90;;;;;;5046269;28;20099;-70
2022/07/26 05:00:09;;;;;;;10.65;8.32;;;26.90;99.90;;;;;;5042244;28;20025;-70
2022/07/26 05:02:35;;;;;;;19.20;7.78;;;27.00;99.90;;;;;;5050416;28;20503;-70
2022/07/26 05:05:01;;;;;;;15.32;8.43;;;27.10;99.90;;;;;;5044004;28;20123;-72
2022/07/26 05:07:26;;;;;;;7.95;7.10;;;27.20;99.90;;;;;;5044014;28;20111;-71
2022/07/26 05:09:52;;;;;;;8.35;7.43;;;27.30;99.90;;;;;;5041730;28;20032;-71
2022/07/26 05:12:18;;;;;;;10.57;8.27;;;27.40;99.90;;;;;;5042681;28;20044;-71
2022/07/26 05:14:44;;;;;;;8.77;7.60;;;27.50;99.90;;;;;;5042923;28;20495;-72
2022/07/26 05:17:10;;;;;;;11.10;8.07;;;27.60;99.90;;;;;;5038039;28;20084;-71
2022/07/26 05:19:39;;;;;;;14.57;8.90;;;27.70;99.90;;;;;;5043450;28;20022;-71
2022/07/26 05:22:08;;;;;;;8.82;7.75;;;27.80;99.90;;;;;;5046260;28;20123;-71
2022/07/26 05:24:34;;;;;;;12.77;7.95;;;27.90;99.90;;;;;;5041353;28;20017;-71
2022/07/26 05:26:59;;;;;;;13.52;8.35;;;28.00;99.90;;;;;;5047018;28;20043;-71
2022/07/26 05:29:25;;;;;;;13.05;8.75;;;28.10;99.90;;;;;;5041686;28;20024;-71
2022/07/26 05:31:51;;;;;;;12.20;8.02;;;28.10;99.80;;;;;;5050266;28;20028;-71
2022/07/26 05:34:17;;;;;;;16.90;8.45;;;28.20;99.90;;;;;;5042441;28;20022;-71
2022/07/26 05:36:42;;;;;;;9.68;7.78;;;28.40;99.60;;;;;;5036564;28;20510;-71
2022/07/26 05:39:08;;;;;;;15.35;8.88;;;28.60;99.00;;;;;;5041369;28;20068;-72
2022/07/26 05:41:34;;;;;;;14.60;7.93;;;28.90;98.40;;;;;;5044129;28;20029;-71
2022/07/26 05:44:00;;;;;;;13.27;7.63;;;29.00;98.10;;;;;;5044136;28;20454;-70
2022/07/26 05:46:28;;;;;;;9.25;7.50;;;29.20;97.50;;;;;;5044267;28;20030;-71
2022/07/26 05:48:54;;;;;;;14.18;7.28;;;29.30;97.10;;;;;;5044141;28;20056;-71
2022/07/26 05:51:20;;;;;;;10.27;7.55;;;29.40;96.70;;;;;;5045412;28;20049;-71
2022/07/26 05:53:45;;;;;;;12.90;7.07;;;29.40;96.30;;;;;;5041846;28;20029;-71
2022/07/26 05:56:11;;;;;;;18.02;8.05;;;29.40;96.10;;;;;;5044079;28;20210;-71
2022/07/26 05:58:37;;;;;;;17.38;9.45;;;29.30;96.60;;;;;;5042409;28;20033;-71
2022/07/26 06:01:02;;;;;;;19.40;9.52;;;29.20;99.90;;;;;;5042811;28;20025;-71
2022/07/26 06:03:30;;;;;;;11.57;7.93;;;29.00;99.90;;;;;;5045894;28;20025;-72
2022/07/26 06:05:57;;;;;;;30.73;10.20;;;28.70;99.90;;;;;;5039526;28;20017;-71
2022/07/26 06:08:25;;;;;;;23.60;11.15;;;28.20;99.90;;;;;;5041706;28;20112;-72
2022/07/26 06:10:51;;;;;;;112.38;23.67;;;26.70;99.90;;;;;;5044508;28;20033;-75
2022/07/26 06:13:17;;;;;;;221.45;30.98;;;24.80;99.90;;;;;;5042039;28;20082;-80
2022/07/26 06:15:44;;;;;;;267.05;40.45;;;23.00;99.90;;;;;;5042775;28;20026;-83
2022/07/26 06:21:36;;;;;;;65.78;41.72;;;22.00;99.90;;;;;;5111208;27;20504;-82
2022/07/26 06:24:02;;;;;;;129.27;42.90;;;21.60;99.90;;;;;;5082397;28;20044;-87
2022/07/26 06:26:32;;;;;;;161.60;51.67;;;21.50;99.90;;;;;;5087219;28;20025;-91
2022/07/26 06:28:58;;;;;;;87.75;59.53;;;21.50;99.90;;;;;;5059339;28;20035;-84
2022/07/26 06:31:23;;;;;;;157.77;87.95;;;21.50;99.90;;;;;;5079625;28;20060;-82
2022/07/26 06:33:50;;;;;;;358.52;146.60;;;21.60;99.90;;;;;;5081131;28;20032;-81
2022/07/26 06:36:16;;;;;;;189.90;109.97;;;21.80;99.90;;;;;;5081408;28;20060;-80
2022/07/26 06:38:42;;;;;;;249.73;128.57;;;22.00;99.90;;;;;;5078087;28;20028;-82
2022/07/26 06:41:07;;;;;;;279.27;135.63;;;22.20;99.90;;;;;;5075880;28;20028;-81
2022/07/26 06:43:33;;;;;;;212.73;123.18;;;22.20;99.90;;;;;;5077662;28;20434;-79
2022/07/26 06:45:59;;;;;;;231.80;125.07;;;22.30;99.90;;;;;;5080497;28;20029;-81
2022/07/26 06:48:24;;;;;;;190.98;109.70;;;22.30;99.90;;;;;;5078293;28;20016;-78
2022/07/26 06:50:50;;;;;;;205.52;112.38;;;22.20;99.90;;;;;;5073770;28;20032;-80
2022/07/26 06:53:16;;;;;;;148.93;100.97;;;22.10;99.90;;;;;;5077848;28;20367;-78
2022/07/26 06:55:42;;;;;;;221.88;116.50;;;22.10;99.90;;;;;;5075252;28;20050;-79
2022/07/26 06:58:08;;;;;;;409.85;149.57;;;22.10;99.90;;;;;;5079491;28;20039;-83
2022/07/26 07:00:33;;;;;;;272.85;127.53;;;22.00;99.90;;;;;;5079365;28;20123;-85
2022/07/26 07:02:59;;;;;;;238.15;124.80;;;22.10;99.90;;;;;;5070973;28;20596;-82
2022/07/26 07:05:25;;;;;;;258.98;129.73;;;22.20;99.90;;;;;;5078503;28;20025;-81
2022/07/26 07:07:51;;;;;;;280.98;133.30;;;22.40;99.90;;;;;;5097611;28;20023;-78
2022/07/26 07:10:16;;;;;;;177.07;104.68;;;22.40;99.90;;;;;;5093335;28;20109;-79
2022/07/26 07:12:43;;;;;;;214.68;112.82;;;22.40;99.90;;;;;;5099928;28;20030;-82
2022/07/26 07:15:10;;;;;;;143.18;94.68;;;22.30;99.90;;;;;;5093180;28;20035;-80
2022/07/26 07:17:36;;;;;;;169.10;98.80;;;22.00;99.90;;;;;;5100084;28;20377;-83
2022/07/26 07:20:04;;;;;;;126.20;81.53;;;21.50;99.90;;;;;;5089206;28;20039;-81
2022/07/26 07:22:30;;;;;;;166.05;91.25;;;21.60;99.90;;;;;;5094704;28;20067;-82
2022/07/26 07:24:55;;;;;;;263.70;109.57;;;21.60;99.90;;;;;;5098719;28;20063;-80
2022/07/26 07:27:21;;;;;;;155.48;89.20;;;21.60;99.90;;;;;;5093851;28;20560;-79
2022/07/26 07:29:47;;;;;;;192.23;105.45;;;21.80;99.90;;;;;;5097965;28;20024;-80
2022/07/26 07:32:12;;;;;;;177.43;103.03;;;21.80;99.90;;;;;;5088182;28;20482;-80
2022/07/26 07:34:38;;;;;;;184.13;108.97;;;21.80;99.90;;;;;;5079733;28;20036;-81
2022/07/26 07:37:04;;;;;;;191.18;107.82;;;21.80;99.90;;;;;;5083675;28;20111;-83
2022/07/26 07:39:30;;;;;;;184.85;110.65;;;21.80;99.90;;;;;;5082564;28;20024;-79
2022/07/26 07:41:56;;;;;;;154.30;99.00;;;21.70;99.90;;;;;;5077603;28;20081;-80
2022/07/26 07:44:22;;;;;;;123.65;82.07;;;21.60;99.90;;;;;;5081318;28;20424;-80
2022/07/26 07:46:47;;;;;;;103.45;72.43;;;21.50;99.90;;;;;;5076920;28;20032;-78
2022/07/26 07:49:14;;;;;;;134.60;83.55;;;21.40;99.90;;;;;;5082231;28;20020;-80
2022/07/26 07:51:40;;;;;;;106.90;72.43;;;21.30;99.90;;;;;;5087053;28;20512;-79
2022/07/26 07:54:06;;;;;;;103.57;71.38;;;21.30;99.90;;;;;;5082402;28;20017;-80
2022/07/26 07:56:32;;;;;;;103.40;70.53;;;21.40;99.90;;;;;;5081353;28;20035;-78
2022/07/26 07:58:58;;;;;;;107.78;72.30;;;21.50;99.90;;;;;;5072246;28;20023;-79
2022/07/26 08:01:23;;;;;;;117.35;76.10;;;21.50;99.90;;;;;;5080388;28;20028;-81
2022/07/26 08:03:52;;;;;;;107.40;72.13;;;21.60;99.90;;;;;;5083471;28;20024;-82
2022/07/26 08:06:18;;;;;;;115.82;75.60;;;21.50;99.90;;;;;;5086858;28;20177;-80
2022/07/26 08:08:43;;;;;;;97.43;66.82;;;21.60;99.90;;;;;;5082619;28;20059;-80
2022/07/26 08:11:12;;;;;;;106.68;68.57;;;21.60;99.90;;;;;;5084862;28;20028;-81
2022/07/26 08:13:38;;;;;;;83.63;59.20;;;21.70;99.90;;;;;;5082201;28;20035;-80
2022/07/26 08:16:04;;;;;;;90.45;61.72;;;21.60;99.90;;;;;;5079601;28;20020;-80
2022/07/26 08:18:29;;;;;;;79.28;56.00;;;21.50;99.90;;;;;;5081935;28;20028;-79
2022/07/26 08:20:58;;;;;;;84.10;56.38;;;21.40;99.90;;;;;;5079050;28;20048;-80
2022/07/26 08:23:24;;;;;;;77.53;55.58;;;21.30;99.90;;;;;;5078647;28;20501;-79
2022/07/26 08:25:50;;;;;;;79.63;55.78;;;21.30;99.90;;;;;;5085000;28;20059;-81
2022/07/26 08:28:16;;;;;;;67.13;50.05;;;21.30;99.90;;;;;;5082685;28;20023;-78
2022/07/26 08:30:42;;;;;;;67.70;50.38;;;21.30;99.90;;;;;;5081505;28;20103;-79
2022/07/26 08:33:10;;;;;;;73.13;49.67;;;21.40;99.90;;;;;;5086387;28;20461;-79
2022/07/26 08:35:36;;;;;;;69.90;49.30;;;21.30;99.90;;;;;;5084796;28;20043;-79
2022/07/26 08:38:04;;;;;;;60.42;47.28;;;21.30;99.90;;;;;;5082815;28;20043;-78
2022/07/26 08:40:32;;;;;;;55.17;39.75;;;21.30;99.90;;;;;;5077544;28;20349;-77
2022/07/26 08:42:57;;;;;;;53.63;42.17;;;21.20;99.90;;;;;;5080068;28;20535;-80
2022/07/26 08:45:28;;;;;;;52.17;41.45;;;21.20;99.90;;;;;;5080499;28;20033;-80
2022/07/26 08:47:54;;;;;;;55.95;42.95;;;21.20;99.90;;;;;;5080263;28;20024;-80
2022/07/26 08:50:20;;;;;;;50.88;39.63;;;21.20;99.90;;;;;;5080857;28;20436;-79
2022/07/26 08:52:46;;;;;;;48.85;37.80;;;21.40;99.90;;;;;;5079783;28;20063;-78
2022/07/26 08:55:19;;;;;;;40.65;31.05;;;21.40;99.90;;;;;;5084428;28;20059;-78
2022/07/26 08:57:45;;;;;;;48.55;30.50;;;21.50;99.90;;;;;;5079587;28;20027;-77
2022/07/26 09:00:23;;;;;;;42.95;32.55;;;21.40;99.90;;;;;;5081805;28;20036;-77
2022/07/26 09:02:50;;;;;;;45.38;34.47;;;21.40;99.90;;;;;;5083978;28;20028;-77
2022/07/26 09:05:28;;;;;;;33.08;29.52;;;21.40;99.90;;;;;;5081662;28;20045;-77
2022/07/26 09:07:54;;;;;;;39.83;31.98;;;21.40;99.90;;;;;;5078606;28;20047;-78
2022/07/26 09:10:20;;;;;;;43.80;32.92;;;21.40;99.90;;;;;;5080537;28;20031;-77
2022/07/26 09:12:55;;;;;;;37.65;32.85;;;21.50;99.90;;;;;;5078351;28;20024;-78
2022/07/26 09:15:24;;;;;;;41.03;33.08;;;21.50;99.90;;;;;;5076811;28;20032;-78
2022/07/26 09:17:53;;;;;;;29.65;26.60;;;21.60;99.90;;;;;;5078404;28;20107;-78
2022/07/26 09:20:22;;;;;;;37.50;30.70;;;21.60;99.90;;;;;;5080112;28;20044;-76
2022/07/26 09:23:08;;;;;;;31.10;26.08;;;21.60;99.90;;;;;;5079433;28;20021;-77
2022/07/26 09:25:40;;;;;;;26.85;24.02;;;21.60;99.90;;;;;;5078952;28;20071;-78
2022/07/26 09:28:27;;;;;;;24.93;20.73;;;21.50;99.90;;;;;;5081756;28;20024;-79
2022/07/26 09:30:58;;;;;;;23.77;21.35;;;21.40;99.90;;;;;;5083283;28;20108;-77
2022/07/26 09:33:25;;;;;;;27.92;23.42;;;21.40;99.90;;;;;;5083097;28;20123;-78
2022/07/26 09:36:02;;;;;;;24.35;21.73;;;21.40;99.90;;;;;;5083785;28;20032;-77
2022/07/26 09:38:49;;;;;;;26.58;23.70;;;21.40;99.90;;;;;;5076739;28;20484;-77
2022/07/26 09:41:27;;;;;;;24.55;21.40;;;21.50;99.90;;;;;;5079363;28;20486;-79
2022/07/26 09:43:54;;;;;;;19.85;17.23;;;21.50;99.90;;;;;;5078824;28;20038;-80
2022/07/26 09:46:27;;;;;;;26.73;19.45;;;21.60;99.90;;;;;;5084220;28;20040;-77
2022/07/26 09:48:56;;;;;;;21.65;18.80;;;21.50;99.90;;;;;;5079249;28;20058;-76
2022/07/26 09:51:42;;;;;;;18.90;16.95;;;21.60;99.90;;;;;;5078032;28;20024;-77
2022/07/26 09:54:10;;;;;;;17.63;15.63;;;21.60;99.90;;;;;;5072726;28;20032;-76
2022/07/26 09:56:49;;;;;;;16.35;14.85;;;21.60;99.90;;;;;;5078619;28;20081;-79
2022/07/26 09:59:19;;;;;;;16.05;14.07;;;21.60;99.90;;;;;;5077596;28;20042;-76
2022/07/26 10:01:47;;;;;;;16.58;14.98;;;21.60;99.90;;;;;;5063866;28;20072;-76
2022/07/26 10:04:13;;;;;;;18.33;14.63;;;21.70;99.90;;;;;;5079885;28;20447;-76
2022/07/26 10:06:40;;;;;;;15.32;13.73;;;21.70;99.90;;;;;;5084990;28;20287;-78
2022/07/26 10:09:06;;;;;;;16.88;15.18;;;21.70;99.90;;;;;;5081042;28;20047;-79
2022/07/26 10:11:44;;;;;;;16.33;14.63;;;21.80;99.90;;;;;;5079100;28;20036;-78
2022/07/26 10:14:31;;;;;;;13.48;12.07;;;21.80;99.90;;;;;;5072062;28;20061;-77
2022/07/26 10:17:17;;;;;;;14.90;13.60;;;21.80;99.90;;;;;;5068673;28;20088;-78
2022/07/26 10:19:43;;;;;;;13.48;12.10;;;21.80;99.90;;;;;;5081247;28;20040;-77
2022/07/26 10:22:34;;;;;;;15.05;12.75;;;21.70;99.90;;;;;;5082201;28;20035;-76
2022/07/26 10:25:18;;;;;;;14.35;11.75;;;21.80;99.90;;;;;;5083921;28;20433;-78
2022/07/26 10:27:55;;;;;;;14.10;12.90;;;21.90;99.90;;;;;;5078079;28;20028;-77
2022/07/26 10:30:25;;;;;;;13.90;12.30;;;22.00;99.90;;;;;;5075717;28;20036;-77
2022/07/26 10:32:58;;;;;;;9.68;8.77;;;22.10;99.90;;;;;;5083960;28;20054;-78
2022/07/26 10:35:33;;;;;;;10.63;9.63;;;21.70;99.90;;;;;;5082912;28;20119;-77
2022/07/26 10:38:03;;;;;;;12.40;10.00;;;21.60;99.90;;;;;;5079042;28;20028;-77
2022/07/26 10:40:29;;;;;;;10.90;9.95;;;21.80;99.90;;;;;;5077231;28;20036;-76
2022/07/26 10:43:10;;;;;;;13.80;10.48;;;21.90;99.90;;;;;;5081110;28;20028;-76
2022/07/26 10:45:36;;;;;;;16.83;9.68;;;22.00;99.90;;;;;;5081907;28;20042;-76
2022/07/26 10:48:22;;;;;;;9.80;8.80;;;22.20;99.90;;;;;;5079945;28;20016;-75
2022/07/26 10:50:53;;;;;;;12.50;9.50;;;22.30;99.90;;;;;;5076405;28;20035;-78
2022/07/26 10:53:24;;;;;;;16.65;9.50;;;22.40;99.90;;;;;;5080615;28;20020;-76
2022/07/26 10:55:54;;;;;;;9.95;8.95;;;22.50;99.90;;;;;;5082103;28;20039;-76
2022/07/26 10:58:22;;;;;;;9.43;8.63;;;22.50;99.90;;;;;;5080378;28;20086;-77
2022/07/26 11:01:03;;;;;;;9.75;8.75;;;22.50;99.90;;;;;;5077706;28;20032;-78
2022/07/26 11:03:40;;;;;;;10.20;8.30;;;22.60;99.90;;;;;;5080264;28;20492;-77
2022/07/26 11:06:14;;;;;;;9.60;7.47;;;22.80;99.90;;;;;;5082891;28;20085;-77
2022/07/26 11:08:41;;;;;;;8.65;7.75;;;23.00;99.90;;;;;;5082255;28;20169;-77
2022/07/26 11:11:06;;;;;;;7.78;7.15;;;23.00;99.90;;;;;;5081047;28;20410;-77
2022/07/26 11:13:35;;;;;;;10.43;7.28;;;23.30;99.90;;;;;;5084490;28;20027;-77
2022/07/26 11:16:03;;;;;;;7.72;6.65;;;23.40;99.90;;;;;;5080568;28;20012;-78
2022/07/26 11:18:34;;;;;;;10.68;7.45;;;23.40;99.90;;;;;;5094019;28;20036;-79
2022/07/26 11:21:16;;;;;;;6.65;6.07;;;23.50;99.90;;;;;;5078238;28;20040;-77
2022/07/26 11:23:46;;;;;;;6.88;6.13;;;23.60;99.90;;;;;;5087813;28;20411;-75
2022/07/26 11:26:13;;;;;;;6.68;6.07;;;23.60;99.90;;;;;;5085238;28;20035;-76
2022/07/26 11:29:15;;;;;;;8.25;6.70;;;23.40;99.90;;;;;;5083934;28;20024;-78
2022/07/26 11:31:43;;;;;;;10.63;6.32;;;23.50;99.90;;;;;;5041053;28;20028;-76
2022/07/26 11:34:21;;;;;;;5.80;5.30;;;23.70;99.90;;;;;;5084474;28;20478;-76
2022/07/26 11:36:51;;;;;;;6.45;5.88;;;23.40;99.90;;;;;;5070128;28;20031;-78
2022/07/26 11:39:22;;;;;;;7.20;5.45;;;23.30;99.90;;;;;;5084050;28;20038;-77
2022/07/26 11:41:49;;;;;;;7.35;6.00;;;23.50;99.90;;;;;;5069145;28;20039;-77
2022/07/26 11:44:19;;;;;;;6.75;6.15;;;23.70;99.90;;;;;;5085190;28;20020;-79
2022/07/26 11:46:47;;;;;;;7.97;6.20;;;24.10;99.90;;;;;;5071341;28;20028;-78
2022/07/26 11:49:21;;;;;;;6.50;5.90;;;24.10;99.90;;;;;;5083504;28;20034;-78
2022/07/26 11:51:51;;;;;;;6.28;4.70;;;24.50;99.90;;;;;;5073304;28;20069;-77
2022/07/26 11:54:17;;;;;;;8.68;5.38;;;24.70;99.90;;;;;;5084766;28;20024;-77
2022/07/26 11:56:58;;;;;;;5.50;5.00;;;24.60;99.90;;;;;;5079986;28;20498;-77
2022/07/26 11:59:26;;;;;;;6.35;4.97;;;24.70;99.90;;;;;;5084338;28;20028;-78
2022/07/26 12:01:53;;;;;;;4.90;4.38;;;24.90;99.90;;;;;;5081081;28;20032;-78
2022/07/26 12:04:21;;;;;;;4.93;4.53;;;25.20;99.90;;;;;;5082308;28;20028;-78
2022/07/26 12:06:48;;;;;;;5.00;4.50;;;25.50;99.90;;;;;;5070721;28;20506;-77
2022/07/26 12:09:34;;;;;;;4.63;4.05;;;25.80;99.90;;;;;;5083109;28;20505;-78
2022/07/26 12:12:05;;;;;;;7.05;4.00;;;26.10;99.90;;;;;;5073646;28;20016;-77
2022/07/26 12:14:33;;;;;;;5.10;3.78;;;27.10;99.90;;;;;;5081459;28;20032;-80
2022/07/26 12:17:13;;;;;;;3.40;3.10;;;28.40;99.90;;;;;;5085655;28;20360;-76
2022/07/26 12:19:38;;;;;;;5.25;3.00;;;29.30;99.90;;;;;;5080209;28;20526;-77
2022/07/26 12:22:08;;;;;;;3.63;2.75;;;30.20;99.90;;;;;;5079156;28;20150;-79
2022/07/26 12:24:55;;;;;;;5.15;3.00;;;31.60;99.90;;;;;;5081567;28;20086;-79
2022/07/26 12:27:29;;;;;;;3.78;2.78;;;32.80;99.90;;;;;;5080840;28;20070;-79
2022/07/26 12:30:03;;;;;;;7.25;2.88;;;33.80;99.90;;;;;;5083757;28;20029;-79
2022/07/26 12:32:37;;;;;;;3.63;2.47;;;34.50;99.90;;;;;;5086925;28;20039;-78
2022/07/26 12:35:04;;;;;;;4.10;2.42;;;36.10;99.90;;;;;;5069618;28;20020;-79
2022/07/26 12:37:33;;;;;;;5.53;2.38;;;37.40;99.90;;;;;;5077399;28;20031;-80
2022/07/26 12:40:06;;;;;;;4.90;2.20;;;38.90;99.90;;;;;;5083274;28;20433;-79
2022/07/26 12:42:40;;;;;;;3.42;2.08;;;39.80;99.90;;;;;;5082680;28;20039;-78